createdAt,value
2019-06-26T00:00:18.663Z,0.00
2019-06-26T00:01:18.403Z,0.00
2019-06-26T00:02:18.413Z,0.00
2019-06-26T00:03:18.410Z,0.00
2019-06-26T00:04:18.415Z,0.00
2019-06-26T00:05:18.416Z,0.00
2019-06-26T00:06:18.425Z,0.00
2019-06-26T00:07:18.420Z,0.00
2019-06-26T00:08:18.428Z,0.00
2019-06-26T00:09:18.438Z,0.00
2019-06-26T00:10:18.434Z,0.00
2019-06-26T00:11:18.436Z,0.00
2019-06-26T00:12:18.439Z,0.00
2019-06-26T00:13:26.084Z,0.00
2019-06-26T00:14:18.442Z,0.00
2019-06-26T00:15:18.450Z,0.00
2019-06-26T00:16:18.452Z,0.00
2019-06-26T00:17:18.453Z,0.00
2019-06-26T00:18:18.458Z,0.00
2019-06-26T00:19:18.453Z,0.00
2019-06-26T00:20:18.457Z,0.00
2019-06-26T00:21:21.840Z,0.00
2019-06-26T00:22:18.466Z,0.00
2019-06-26T00:23:18.468Z,0.00
2019-06-26T00:24:18.478Z,0.00
2019-06-26T00:25:18.477Z,0.00
2019-06-26T00:26:18.477Z,0.00
2019-06-26T00:27:18.479Z,0.00
2019-06-26T00:28:18.482Z,0.00
2019-06-26T00:29:18.509Z,0.00
2019-06-26T00:30:18.488Z,0.00
2019-06-26T00:31:18.489Z,0.00
2019-06-26T00:32:18.496Z,0.00
2019-06-26T00:33:18.493Z,0.00
2019-06-26T00:34:18.494Z,0.00
2019-06-26T00:35:18.501Z,0.00
2019-06-26T00:36:18.505Z,0.00
2019-06-26T00:37:18.515Z,0.00
2019-06-26T00:38:18.505Z,0.00
2019-06-26T00:39:18.545Z,0.00
2019-06-26T00:40:18.516Z,0.00
2019-06-26T00:41:18.516Z,0.00
2019-06-26T00:42:18.520Z,0.00
2019-06-26T00:43:18.521Z,0.00
2019-06-26T00:44:18.530Z,0.00
2019-06-26T00:45:18.526Z,0.00
2019-06-26T00:46:18.528Z,0.00
2019-06-26T00:47:18.527Z,0.00
2019-06-26T00:48:18.537Z,0.00
2019-06-26T00:49:19.278Z,0.00
2019-06-26T00:50:18.540Z,0.00
2019-06-26T00:51:18.552Z,0.00
2019-06-26T00:52:18.540Z,0.00
2019-06-26T00:53:18.550Z,0.00
2019-06-26T00:54:18.559Z,0.00
2019-06-26T00:55:18.555Z,0.00
2019-06-26T00:56:18.556Z,0.00
2019-06-26T00:57:18.554Z,0.00
2019-06-26T00:58:18.558Z,0.00
2019-06-26T00:59:18.563Z,0.00
2019-06-26T01:00:18.563Z,0.00
2019-06-26T01:01:18.567Z,0.00
2019-06-26T01:02:18.575Z,0.00
2019-06-26T01:03:18.571Z,0.00
2019-06-26T01:04:18.584Z,0.00
2019-06-26T01:05:18.574Z,0.00
2019-06-26T01:06:18.578Z,0.00
2019-06-26T01:07:18.586Z,0.00
2019-06-26T01:08:18.596Z,0.00
2019-06-26T01:09:18.584Z,0.00
2019-06-26T01:10:18.586Z,0.00
2019-06-26T01:11:21.511Z,0.00
2019-06-26T01:12:18.609Z,0.00
2019-06-26T01:13:18.607Z,0.00
2019-06-26T01:14:18.600Z,0.00
2019-06-26T01:15:18.605Z,0.00
2019-06-26T01:16:18.609Z,0.00
2019-06-26T01:17:18.609Z,0.00
2019-06-26T01:18:18.610Z,0.00
2019-06-26T01:19:18.612Z,0.00
2019-06-26T01:20:18.614Z,0.00
2019-06-26T01:21:18.618Z,0.00
2019-06-26T01:22:18.621Z,0.00
2019-06-26T01:23:18.619Z,0.00
2019-06-26T01:24:18.624Z,0.00
2019-06-26T01:25:18.630Z,0.00
2019-06-26T01:26:18.635Z,0.00
2019-06-26T01:27:18.637Z,0.00
2019-06-26T01:28:18.648Z,0.00
2019-06-26T01:29:18.646Z,0.00
2019-06-26T01:30:18.647Z,0.00
2019-06-26T01:31:18.643Z,0.00
2019-06-26T01:32:18.667Z,0.00
2019-06-26T01:33:18.654Z,0.00
2019-06-26T01:34:18.657Z,0.00
2019-06-26T01:35:18.669Z,0.00
2019-06-26T01:36:18.660Z,0.00
2019-06-26T01:37:18.660Z,0.00
2019-06-26T01:38:18.665Z,0.00
2019-06-26T01:39:18.669Z,0.00
2019-06-26T01:40:18.672Z,0.00
2019-06-26T01:41:18.680Z,0.00
2019-06-26T01:42:18.675Z,0.00
2019-06-26T01:43:18.677Z,0.00
2019-06-26T01:44:18.680Z,0.00
2019-06-26T01:45:18.685Z,0.00
2019-06-26T01:46:18.690Z,0.00
2019-06-26T01:47:18.690Z,0.00
2019-06-26T01:48:18.695Z,0.00
2019-06-26T01:49:18.702Z,0.00
2019-06-26T01:50:18.694Z,0.00
2019-06-26T01:51:18.717Z,0.00
2019-06-26T01:52:18.702Z,0.00
2019-06-26T01:53:18.708Z,0.00
2019-06-26T01:54:18.706Z,0.00
2019-06-26T01:55:18.708Z,0.00
2019-06-26T01:56:18.713Z,0.00
2019-06-26T01:57:18.717Z,0.00
2019-06-26T01:58:18.722Z,0.00
2019-06-26T01:59:18.722Z,0.00
2019-06-26T02:00:18.913Z,0.00
2019-06-26T02:01:18.725Z,0.00
2019-06-26T02:02:18.727Z,0.00
2019-06-26T02:03:18.732Z,0.00
2019-06-26T02:04:18.726Z,0.00
2019-06-26T02:05:18.737Z,0.00
2019-06-26T02:06:18.744Z,0.00
2019-06-26T02:07:18.746Z,0.00
2019-06-26T02:08:18.749Z,0.00
2019-06-26T02:09:18.775Z,0.00
2019-06-26T02:10:18.751Z,0.00
2019-06-26T02:11:18.754Z,0.00
2019-06-26T02:12:18.756Z,0.00
2019-06-26T02:13:18.757Z,0.00
2019-06-26T02:14:30.592Z,0.00
2019-06-26T02:15:18.768Z,0.00
2019-06-26T02:16:18.764Z,0.00
2019-06-26T02:17:18.783Z,0.00
2019-06-26T02:18:18.773Z,0.00
2019-06-26T02:19:18.774Z,0.00
2019-06-26T02:20:18.784Z,0.00
2019-06-26T02:21:18.783Z,0.00
2019-06-26T02:22:18.786Z,0.00
2019-06-26T02:23:18.785Z,0.00
2019-06-26T02:24:18.790Z,0.00
2019-06-26T02:25:18.797Z,0.00
2019-06-26T02:26:18.809Z,0.00
2019-06-26T02:27:18.798Z,0.00
2019-06-26T02:28:18.804Z,0.00
2019-06-26T02:29:18.796Z,0.00
2019-06-26T02:30:18.817Z,0.00
2019-06-26T02:31:18.805Z,0.00
2019-06-26T02:32:18.805Z,0.00
2019-06-26T02:33:18.813Z,0.00
2019-06-26T02:34:18.818Z,0.00
2019-06-26T02:35:18.816Z,0.00
2019-06-26T02:36:18.825Z,0.00
2019-06-26T02:37:18.819Z,0.00
2019-06-26T02:38:18.826Z,0.00
2019-06-26T02:39:18.825Z,0.00
2019-06-26T02:40:18.827Z,0.00
2019-06-26T02:41:18.834Z,0.00
2019-06-26T02:42:18.891Z,0.00
2019-06-26T02:43:18.832Z,0.00
2019-06-26T02:44:18.839Z,4.00
2019-06-26T02:45:18.842Z,4.00
2019-06-26T02:46:18.840Z,4.00
2019-06-26T02:47:20.804Z,0.00
2019-06-26T02:48:18.848Z,4.00
2019-06-26T02:49:18.849Z,4.00
2019-06-26T02:50:18.854Z,4.00
2019-06-26T02:51:18.852Z,4.00
2019-06-26T02:52:18.858Z,8.00
2019-06-26T02:53:18.869Z,4.00
2019-06-26T02:54:18.864Z,8.00
2019-06-26T02:55:18.869Z,4.00
2019-06-26T02:56:18.869Z,8.00
2019-06-26T02:57:18.868Z,8.00
2019-06-26T02:58:18.889Z,12.00
2019-06-26T02:59:18.876Z,12.00
2019-06-26T03:00:18.882Z,16.00
2019-06-26T03:01:18.878Z,16.00
2019-06-26T03:02:18.879Z,16.00
2019-06-26T03:03:18.888Z,16.00
2019-06-26T03:04:18.909Z,20.00
2019-06-26T03:05:18.958Z,24.00
2019-06-26T03:06:18.907Z,28.00
2019-06-26T03:07:18.894Z,28.00
2019-06-26T03:08:18.897Z,32.00
2019-06-26T03:09:18.898Z,32.00
2019-06-26T03:10:18.899Z,40.00
2019-06-26T03:11:18.902Z,40.00
2019-06-26T03:12:18.901Z,48.00
2019-06-26T03:13:18.907Z,52.00
2019-06-26T03:14:18.912Z,56.00
2019-06-26T03:15:18.907Z,60.00
2019-06-26T03:16:18.910Z,64.00
2019-06-26T03:17:18.915Z,68.00
2019-06-26T03:18:18.919Z,76.00
2019-06-26T03:19:18.923Z,84.00
2019-06-26T03:20:18.926Z,84.00
2019-06-26T03:21:18.929Z,92.00
2019-06-26T03:22:18.923Z,100.00
2019-06-26T03:23:18.924Z,104.00
2019-06-26T03:24:18.929Z,116.00
2019-06-26T03:25:18.935Z,120.00
2019-06-26T03:26:18.942Z,124.00
2019-06-26T03:27:18.956Z,136.00
2019-06-26T03:28:18.957Z,144.00
2019-06-26T03:29:18.938Z,152.00
2019-06-26T03:30:18.948Z,160.00
2019-06-26T03:31:18.950Z,168.00
2019-06-26T03:32:18.956Z,180.00
2019-06-26T03:33:18.946Z,188.00
2019-06-26T03:34:18.948Z,200.00
2019-06-26T03:35:18.951Z,208.00
2019-06-26T03:36:18.953Z,216.00
2019-06-26T03:37:18.964Z,224.00
2019-06-26T03:38:19.031Z,232.00
2019-06-26T03:39:18.960Z,244.00
2019-06-26T03:40:18.965Z,256.00
2019-06-26T03:41:18.963Z,276.00
2019-06-26T03:42:18.979Z,292.00
2019-06-26T03:43:18.966Z,304.00
2019-06-26T03:44:18.969Z,316.00
2019-06-26T03:45:25.480Z,332.00
2019-06-26T03:46:18.985Z,344.00
2019-06-26T03:47:18.973Z,360.00
2019-06-26T03:48:18.979Z,376.00
2019-06-26T03:49:18.999Z,396.00
2019-06-26T03:50:18.982Z,416.00
2019-06-26T03:51:18.987Z,436.00
2019-06-26T03:52:19.011Z,452.00
2019-06-26T03:53:18.990Z,472.00
2019-06-26T03:54:18.982Z,488.00
2019-06-26T03:55:18.998Z,508.00
2019-06-26T03:56:18.993Z,528.00
2019-06-26T03:57:19.002Z,544.00
2019-06-26T03:58:19.032Z,564.00
2019-06-26T03:59:19.042Z,580.00
2019-06-26T04:00:19.007Z,600.00
2019-06-26T04:01:19.003Z,620.00
2019-06-26T04:02:19.006Z,644.00
2019-06-26T04:03:19.022Z,664.00
2019-06-26T04:04:19.015Z,688.00
2019-06-26T04:05:19.043Z,708.00
2019-06-26T04:06:19.019Z,732.00
2019-06-26T04:07:19.019Z,748.00
2019-06-26T04:08:19.020Z,776.00
2019-06-26T04:09:19.025Z,796.00
2019-06-26T04:10:19.026Z,820.00
2019-06-26T04:11:19.028Z,844.00
2019-06-26T04:12:19.031Z,868.00
2019-06-26T04:13:19.030Z,892.00
2019-06-26T04:14:19.032Z,916.00
2019-06-26T04:15:19.032Z,936.00
2019-06-26T04:16:19.043Z,960.00
2019-06-26T04:17:19.034Z,980.00
2019-06-26T04:18:19.052Z,1004.00
2019-06-26T04:19:19.054Z,1032.00
2019-06-26T04:20:19.048Z,1056.00
2019-06-26T04:21:19.051Z,1088.00
2019-06-26T04:22:19.053Z,1112.00
2019-06-26T04:23:19.056Z,1140.00
2019-06-26T04:24:19.058Z,1164.00
2019-06-26T04:25:19.059Z,1192.00
2019-06-26T04:26:19.064Z,1212.00
2019-06-26T04:27:19.061Z,1232.00
2019-06-26T04:28:19.085Z,1252.00
2019-06-26T04:29:19.072Z,1280.00
2019-06-26T04:30:19.176Z,1304.00
2019-06-26T04:31:19.079Z,1332.00
2019-06-26T04:32:19.078Z,1352.00
2019-06-26T04:33:19.072Z,1372.00
2019-06-26T04:34:19.086Z,1404.00
2019-06-26T04:35:19.085Z,1428.00
2019-06-26T04:36:19.091Z,1456.00
2019-06-26T04:37:19.091Z,1480.00
2019-06-26T04:38:19.095Z,1504.00
2019-06-26T04:39:19.106Z,1528.00
2019-06-26T04:40:20.423Z,1560.00
2019-06-26T04:41:19.100Z,1580.00
2019-06-26T04:42:19.105Z,1616.00
2019-06-26T04:43:19.105Z,1644.00
2019-06-26T04:44:19.109Z,1676.00
2019-06-26T04:45:19.108Z,1704.00
2019-06-26T04:46:19.113Z,1752.00
2019-06-26T04:47:19.114Z,1860.00
2019-06-26T04:48:19.121Z,1948.00
2019-06-26T04:49:19.135Z,1992.00
2019-06-26T04:50:19.127Z,2108.00
2019-06-26T04:51:19.129Z,2172.00
2019-06-26T04:52:19.130Z,2072.00
2019-06-26T04:53:19.134Z,1956.00
2019-06-26T04:54:19.138Z,1956.00
2019-06-26T04:55:19.147Z,2000.00
2019-06-26T04:56:19.146Z,2000.00
2019-06-26T04:57:19.144Z,2016.00
2019-06-26T04:58:19.148Z,2060.00
2019-06-26T04:59:19.149Z,2120.00
2019-06-26T05:00:21.713Z,2124.00
2019-06-26T05:01:19.164Z,2120.00
2019-06-26T05:02:19.162Z,2136.00
2019-06-26T05:03:19.160Z,2176.00
2019-06-26T05:04:19.168Z,2228.00
2019-06-26T05:05:19.175Z,2248.00
2019-06-26T05:06:19.245Z,2240.00
2019-06-26T05:07:19.188Z,2264.00
2019-06-26T05:08:19.192Z,2300.00
2019-06-26T05:09:19.252Z,2328.00
2019-06-26T05:10:19.197Z,2344.00
2019-06-26T05:11:19.198Z,2380.00
2019-06-26T05:12:19.198Z,2412.00
2019-06-26T05:13:19.207Z,2452.00
2019-06-26T05:14:19.210Z,2496.00
2019-06-26T05:15:19.221Z,2520.00
2019-06-26T05:16:20.378Z,2556.00
2019-06-26T05:17:19.255Z,2592.00
2019-06-26T05:18:19.224Z,2636.00
2019-06-26T05:19:19.229Z,2716.00
2019-06-26T05:20:19.232Z,2768.00
2019-06-26T05:21:19.241Z,2796.00
2019-06-26T05:22:19.248Z,2816.00
2019-06-26T05:23:19.243Z,2872.00
2019-06-26T05:24:19.248Z,3144.00
2019-06-26T05:25:19.257Z,3312.00
2019-06-26T05:26:19.264Z,3552.00
2019-06-26T05:27:19.258Z,3916.00
2019-06-26T05:28:19.266Z,3980.00
2019-06-26T05:29:19.265Z,4092.00
2019-06-26T05:30:19.279Z,4108.00
2019-06-26T05:31:19.279Z,4192.00
2019-06-26T05:32:19.287Z,4200.00
2019-06-26T05:33:19.326Z,4216.00
2019-06-26T05:34:19.297Z,4232.00
2019-06-26T05:35:19.297Z,4292.00
2019-06-26T05:36:19.306Z,4360.00
2019-06-26T05:37:19.335Z,4436.00
2019-06-26T05:38:19.323Z,4528.00
2019-06-26T05:39:19.325Z,4552.00
2019-06-26T05:40:19.328Z,4640.00
2019-06-26T05:41:19.362Z,4700.00
2019-06-26T05:42:19.343Z,4776.00
2019-06-26T05:43:19.359Z,4752.00
2019-06-26T05:44:19.358Z,4852.00
2019-06-26T05:45:19.375Z,4892.00
2019-06-26T05:46:30.470Z,4932.00
2019-06-26T05:47:22.056Z,5000.00
2019-06-26T05:48:19.388Z,5048.00
2019-06-26T05:49:19.395Z,5020.00
2019-06-26T05:50:19.402Z,5140.00
2019-06-26T05:51:19.405Z,5100.00
2019-06-26T05:52:19.432Z,5140.00
2019-06-26T05:53:19.432Z,5208.00
2019-06-26T05:54:19.448Z,5200.00
2019-06-26T05:55:19.445Z,5272.00
2019-06-26T05:56:19.451Z,5372.00
2019-06-26T05:57:19.457Z,5344.00
2019-06-26T05:58:19.461Z,5424.00
2019-06-26T05:59:19.480Z,5424.00
2019-06-26T06:00:19.483Z,5392.00
2019-06-26T06:01:19.491Z,5468.00
2019-06-26T06:02:19.528Z,5508.00
2019-06-26T06:03:19.498Z,5536.00
2019-06-26T06:04:19.515Z,5604.00
2019-06-26T06:05:19.526Z,5692.00
2019-06-26T06:06:19.535Z,5732.00
2019-06-26T06:07:19.542Z,5760.00
2019-06-26T06:08:19.553Z,5812.00
2019-06-26T06:09:19.561Z,5844.00
2019-06-26T06:10:19.587Z,5936.00
2019-06-26T06:11:19.577Z,5960.00
2019-06-26T06:12:19.584Z,6032.00
2019-06-26T06:13:19.601Z,6092.00
2019-06-26T06:14:19.600Z,6096.00
2019-06-26T06:15:19.619Z,6044.00
2019-06-26T06:16:19.626Z,6164.00
2019-06-26T06:17:19.637Z,6136.00
2019-06-26T06:18:19.646Z,6260.00
2019-06-26T06:19:19.658Z,6388.00
2019-06-26T06:20:19.675Z,6448.00
2019-06-26T06:21:19.677Z,6472.00
2019-06-26T06:22:19.687Z,6444.00
2019-06-26T06:23:19.698Z,6556.00
2019-06-26T06:24:19.729Z,6568.00
2019-06-26T06:25:19.711Z,6608.00
2019-06-26T06:26:19.725Z,6672.00
2019-06-26T06:27:19.731Z,6648.00
2019-06-26T06:28:19.748Z,6708.00
2019-06-26T06:29:19.750Z,6748.00
2019-06-26T06:30:19.767Z,6772.00
2019-06-26T06:31:19.774Z,6864.00
2019-06-26T06:32:19.786Z,6968.00
2019-06-26T06:33:19.792Z,7008.00
2019-06-26T06:34:19.801Z,6944.00
2019-06-26T06:35:19.817Z,7008.00
2019-06-26T06:36:19.829Z,7128.00
2019-06-26T06:37:19.838Z,7144.00
2019-06-26T06:38:19.894Z,7240.00
2019-06-26T06:39:19.861Z,7272.00
2019-06-26T06:40:19.875Z,7284.00
2019-06-26T06:41:19.874Z,7356.00
2019-06-26T06:42:19.890Z,7424.00
2019-06-26T06:43:19.901Z,7488.00
2019-06-26T06:44:19.915Z,7496.00
2019-06-26T06:45:20.030Z,7572.00
2019-06-26T06:46:19.937Z,7476.00
2019-06-26T06:47:19.946Z,7580.00
2019-06-26T06:48:19.962Z,7660.00
2019-06-26T06:49:19.970Z,7792.00
2019-06-26T06:50:19.983Z,7904.00
2019-06-26T06:51:19.992Z,8028.00
2019-06-26T06:52:20.016Z,7884.00
2019-06-26T06:53:20.015Z,7836.00
2019-06-26T06:54:20.058Z,7992.00
2019-06-26T06:55:20.041Z,8060.00
2019-06-26T06:56:20.050Z,8120.00
2019-06-26T06:57:20.111Z,8280.00
2019-06-26T06:58:20.072Z,8044.00
2019-06-26T06:59:20.081Z,8216.00
2019-06-26T07:00:20.110Z,8328.00
2019-06-26T07:01:20.119Z,8300.00
2019-06-26T07:02:20.126Z,8172.00
2019-06-26T07:03:20.144Z,8312.00
2019-06-26T07:04:20.139Z,8512.00
2019-06-26T07:05:20.157Z,8744.00
2019-06-26T07:06:20.162Z,8476.00
2019-06-26T07:07:20.191Z,8464.00
2019-06-26T07:08:20.185Z,8732.00
2019-06-26T07:09:20.218Z,8748.00
2019-06-26T07:10:20.213Z,8756.00
2019-06-26T07:11:20.232Z,8864.00
2019-06-26T07:12:21.037Z,8816.00
2019-06-26T07:13:20.255Z,8752.00
2019-06-26T07:14:20.274Z,8848.00
2019-06-26T07:15:20.288Z,8840.00
2019-06-26T07:16:20.301Z,8972.00
2019-06-26T07:17:21.529Z,9104.00
2019-06-26T07:18:20.305Z,9292.00
2019-06-26T07:19:20.326Z,9252.00
2019-06-26T07:20:20.340Z,9356.00
2019-06-26T07:21:20.348Z,9028.00
2019-06-26T07:22:20.361Z,9132.00
2019-06-26T07:23:20.366Z,9164.00
2019-06-26T07:24:20.403Z,9264.00
2019-06-26T07:25:20.401Z,9220.00
2019-06-26T07:26:20.412Z,9440.00
2019-06-26T07:27:20.423Z,9640.00
2019-06-26T07:28:20.478Z,9536.00
2019-06-26T07:29:20.455Z,9420.00
2019-06-26T07:30:20.464Z,9232.00
2019-06-26T07:31:20.472Z,9236.00
2019-06-26T07:32:20.487Z,9332.00
2019-06-26T07:33:20.500Z,9644.00
2019-06-26T07:34:20.510Z,9848.00
2019-06-26T07:35:20.527Z,9916.00
2019-06-26T07:36:20.536Z,10032.00
2019-06-26T07:37:20.543Z,10016.00
2019-06-26T07:38:20.573Z,10000.00
2019-06-26T07:39:20.586Z,9672.00
2019-06-26T07:40:20.579Z,9668.00
2019-06-26T07:41:20.603Z,9588.00
2019-06-26T07:42:20.612Z,9668.00
2019-06-26T07:43:20.624Z,9676.00
2019-06-26T07:44:20.636Z,9676.00
2019-06-26T07:45:23.897Z,9792.00
2019-06-26T07:46:20.662Z,9644.00
2019-06-26T07:47:23.461Z,9548.00
2019-06-26T07:48:20.689Z,9620.00
2019-06-26T07:49:20.701Z,9604.00
2019-06-26T07:50:20.719Z,9524.00
2019-06-26T07:51:20.728Z,9440.00
2019-06-26T07:52:20.739Z,9520.00
2019-06-26T07:53:20.749Z,9572.00
2019-06-26T07:54:20.765Z,9764.00
2019-06-26T07:55:20.773Z,9736.00
2019-06-26T07:56:20.788Z,9688.00
2019-06-26T07:57:20.797Z,9548.00
2019-06-26T07:58:20.814Z,9584.00
2019-06-26T07:59:20.837Z,9592.00
2019-06-26T08:00:20.853Z,9536.00
2019-06-26T08:01:20.858Z,9452.00
2019-06-26T08:02:20.866Z,9224.00
2019-06-26T08:03:20.873Z,9044.00
2019-06-26T08:04:20.891Z,8872.00
2019-06-26T08:05:20.897Z,8472.00
2019-06-26T08:06:20.909Z,8060.00
2019-06-26T08:07:20.921Z,7632.00
2019-06-26T08:08:20.964Z,7244.00
2019-06-26T08:09:20.950Z,6956.00
2019-06-26T08:10:20.982Z,6736.00
2019-06-26T08:11:21.019Z,6548.00
2019-06-26T08:12:20.995Z,6456.00
2019-06-26T08:13:20.998Z,6336.00
2019-06-26T08:14:21.093Z,6188.00
2019-06-26T08:15:21.021Z,6180.00
2019-06-26T08:16:21.094Z,6080.00
2019-06-26T08:17:21.041Z,5952.00
2019-06-26T08:18:21.058Z,5896.00
2019-06-26T08:19:21.068Z,5776.00
2019-06-26T08:20:21.079Z,5672.00
2019-06-26T08:21:21.086Z,5560.00
2019-06-26T08:22:21.105Z,5496.00
2019-06-26T08:23:21.111Z,5436.00
2019-06-26T08:24:21.121Z,5372.00
2019-06-26T08:25:21.136Z,5312.00
2019-06-26T08:26:21.147Z,5304.00
2019-06-26T08:27:21.164Z,5272.00
2019-06-26T08:28:21.171Z,5168.00
2019-06-26T08:29:21.177Z,5032.00
2019-06-26T08:30:21.201Z,4996.00
2019-06-26T08:31:21.361Z,4944.00
2019-06-26T08:32:21.280Z,4884.00
2019-06-26T08:33:21.222Z,4864.00
2019-06-26T08:34:21.281Z,4864.00
2019-06-26T08:35:21.240Z,4852.00
2019-06-26T08:36:21.250Z,4852.00
2019-06-26T08:37:21.264Z,4792.00
2019-06-26T08:38:21.274Z,4684.00
2019-06-26T08:39:21.285Z,4636.00
2019-06-26T08:40:21.364Z,4672.00
2019-06-26T08:41:21.302Z,4688.00
2019-06-26T08:42:21.315Z,4672.00
2019-06-26T08:43:21.326Z,4684.00
2019-06-26T08:44:21.332Z,4676.00
2019-06-26T08:45:21.364Z,4704.00
2019-06-26T08:46:21.359Z,4668.00
2019-06-26T08:47:21.364Z,4696.00
2019-06-26T08:48:38.383Z,4668.00
2019-06-26T08:49:26.052Z,4668.00
2019-06-26T08:50:21.396Z,4664.00
2019-06-26T08:51:21.405Z,4648.00
2019-06-26T08:52:21.414Z,4640.00
2019-06-26T08:53:21.433Z,4588.00
2019-06-26T08:54:21.442Z,4584.00
2019-06-26T08:55:21.442Z,4580.00
2019-06-26T08:56:21.453Z,4564.00
2019-06-26T08:57:21.470Z,4540.00
2019-06-26T08:58:21.470Z,4520.00
2019-06-26T08:59:21.483Z,4464.00
2019-06-26T09:00:21.501Z,4452.00
2019-06-26T09:01:21.499Z,4424.00
2019-06-26T09:02:21.510Z,4372.00
2019-06-26T09:03:21.518Z,4360.00
2019-06-26T09:04:21.542Z,4388.00
2019-06-26T09:05:21.552Z,4384.00
2019-06-26T09:06:21.553Z,4360.00
2019-06-26T09:07:21.571Z,4316.00
2019-06-26T09:08:21.625Z,4260.00
2019-06-26T09:09:21.577Z,4204.00
2019-06-26T09:10:21.585Z,4176.00
2019-06-26T09:11:21.599Z,4184.00
2019-06-26T09:12:21.604Z,4164.00
2019-06-26T09:13:21.612Z,4152.00
2019-06-26T09:14:21.629Z,4180.00
2019-06-26T09:15:21.630Z,4216.00
2019-06-26T09:16:21.638Z,4240.00
2019-06-26T09:17:21.650Z,4276.00
2019-06-26T09:18:35.028Z,4260.00
2019-06-26T09:19:21.680Z,4240.00
2019-06-26T09:20:21.676Z,4228.00
2019-06-26T09:21:21.686Z,4228.00
2019-06-26T09:22:21.689Z,4200.00
2019-06-26T09:23:21.700Z,4184.00
2019-06-26T09:24:21.700Z,4196.00
2019-06-26T09:25:22.679Z,4168.00
2019-06-26T09:26:21.721Z,4144.00
2019-06-26T09:27:21.730Z,4128.00
2019-06-26T09:28:21.739Z,4152.00
2019-06-26T09:29:24.009Z,4148.00
2019-06-26T09:30:21.760Z,4148.00
2019-06-26T09:31:21.767Z,4112.00
2019-06-26T09:32:21.776Z,4096.00
2019-06-26T09:33:21.778Z,4092.00
2019-06-26T09:34:21.801Z,4120.00
2019-06-26T09:35:21.795Z,4104.00
2019-06-26T09:36:21.810Z,4080.00
2019-06-26T09:37:21.814Z,4076.00
2019-06-26T09:38:21.828Z,4044.00
2019-06-26T09:39:21.830Z,4032.00
2019-06-26T09:40:21.844Z,4040.00
2019-06-26T09:41:21.850Z,4040.00
2019-06-26T09:42:21.858Z,4024.00
2019-06-26T09:43:21.864Z,4040.00
2019-06-26T09:44:21.876Z,4048.00
2019-06-26T09:45:21.878Z,4040.00
2019-06-26T09:46:21.888Z,4048.00
2019-06-26T09:47:21.895Z,4032.00
2019-06-26T09:48:21.904Z,4016.00
2019-06-26T09:49:21.913Z,4020.00
2019-06-26T09:50:21.923Z,4044.00
2019-06-26T09:51:21.925Z,4068.00
2019-06-26T09:52:21.942Z,4032.00
2019-06-26T09:53:21.942Z,4024.00
2019-06-26T09:54:21.950Z,4056.00
2019-06-26T09:55:21.963Z,4096.00
2019-06-26T09:56:21.971Z,4104.00
2019-06-26T09:57:21.976Z,4104.00
2019-06-26T09:58:21.981Z,4096.00
2019-06-26T09:59:21.991Z,4084.00
2019-06-26T10:00:21.999Z,4088.00
2019-06-26T10:01:22.011Z,4092.00
2019-06-26T10:02:22.018Z,4076.00
2019-06-26T10:03:22.069Z,4044.00
2019-06-26T10:04:22.044Z,4020.00
2019-06-26T10:05:22.067Z,3972.00
2019-06-26T10:06:22.043Z,3956.00
2019-06-26T10:07:22.059Z,3972.00
2019-06-26T10:08:22.060Z,3972.00
2019-06-26T10:09:22.080Z,3968.00
2019-06-26T10:10:22.097Z,3932.00
2019-06-26T10:11:22.125Z,3896.00
2019-06-26T10:12:22.091Z,3896.00
2019-06-26T10:13:22.103Z,3912.00
2019-06-26T10:14:22.111Z,3900.00
2019-06-26T10:15:22.118Z,3892.00
2019-06-26T10:16:22.133Z,3892.00
2019-06-26T10:17:22.137Z,3892.00
2019-06-26T10:18:22.139Z,3916.00
2019-06-26T10:19:22.143Z,3944.00
2019-06-26T10:20:22.219Z,3920.00
2019-06-26T10:21:23.653Z,3860.00
2019-06-26T10:22:22.181Z,3812.00
2019-06-26T10:23:22.181Z,3772.00
2019-06-26T10:24:22.187Z,3760.00
2019-06-26T10:25:22.195Z,3776.00
2019-06-26T10:26:22.200Z,3812.00
2019-06-26T10:27:22.214Z,3844.00
2019-06-26T10:28:22.306Z,3844.00
2019-06-26T10:29:22.233Z,3832.00
2019-06-26T10:30:22.274Z,3820.00
2019-06-26T10:31:22.258Z,3772.00
2019-06-26T10:32:22.246Z,3760.00
2019-06-26T10:33:22.254Z,3768.00
2019-06-26T10:34:22.264Z,3816.00
2019-06-26T10:35:22.265Z,3816.00
2019-06-26T10:36:24.664Z,3808.00
2019-06-26T10:37:22.284Z,3784.00
2019-06-26T10:38:22.332Z,3756.00
2019-06-26T10:39:22.298Z,3708.00
2019-06-26T10:40:22.304Z,3676.00
2019-06-26T10:41:22.346Z,3656.00
2019-06-26T10:42:22.325Z,3680.00
2019-06-26T10:43:22.333Z,3696.00
2019-06-26T10:44:22.336Z,3712.00
2019-06-26T10:45:22.344Z,3716.00
2019-06-26T10:46:22.350Z,3720.00
2019-06-26T10:47:22.358Z,3736.00
2019-06-26T10:48:22.383Z,3712.00
2019-06-26T10:49:27.162Z,3660.00
2019-06-26T10:50:22.382Z,3616.00
2019-06-26T10:51:22.407Z,3656.00
2019-06-26T10:52:22.397Z,3708.00
2019-06-26T10:53:22.406Z,3736.00
2019-06-26T10:54:22.407Z,3816.00
2019-06-26T10:55:22.416Z,3824.00
2019-06-26T10:56:22.423Z,3844.00
2019-06-26T10:57:22.437Z,3772.00
2019-06-26T10:58:22.444Z,3660.00
2019-06-26T10:59:22.496Z,3656.00
2019-06-26T11:00:22.456Z,3728.00
2019-06-26T11:01:22.466Z,3840.00
2019-06-26T11:02:22.472Z,3896.00
2019-06-26T11:03:22.482Z,3924.00
2019-06-26T11:04:22.494Z,3912.00
2019-06-26T11:05:22.493Z,3884.00
2019-06-26T11:06:22.498Z,3816.00
2019-06-26T11:07:22.508Z,3716.00
2019-06-26T11:08:22.513Z,3688.00
2019-06-26T11:09:22.530Z,3672.00
2019-06-26T11:10:22.544Z,3692.00
2019-06-26T11:11:22.541Z,3724.00
2019-06-26T11:12:22.547Z,3732.00
2019-06-26T11:13:22.560Z,3772.00
2019-06-26T11:14:22.561Z,3812.00
2019-06-26T11:15:22.568Z,3844.00
2019-06-26T11:16:22.611Z,3848.00
2019-06-26T11:17:22.589Z,3768.00
2019-06-26T11:18:22.589Z,3752.00
2019-06-26T11:19:22.594Z,3696.00
2019-06-26T11:20:22.610Z,3660.00
2019-06-26T11:21:22.612Z,3672.00
2019-06-26T11:22:22.626Z,3772.00
2019-06-26T11:23:22.630Z,3924.00
2019-06-26T11:24:22.652Z,4028.00
2019-06-26T11:25:22.639Z,4072.00
2019-06-26T11:26:22.649Z,4036.00
2019-06-26T11:27:22.657Z,3932.00
2019-06-26T11:28:22.665Z,3824.00
2019-06-26T11:29:22.668Z,3724.00
2019-06-26T11:30:22.681Z,3672.00
2019-06-26T11:31:22.770Z,3624.00
2019-06-26T11:32:22.697Z,3672.00
2019-06-26T11:33:24.257Z,3744.00
2019-06-26T11:34:22.706Z,3780.00
2019-06-26T11:35:22.725Z,3768.00
2019-06-26T11:36:22.728Z,3720.00
2019-06-26T11:37:23.244Z,3688.00
2019-06-26T11:38:22.740Z,3564.00
2019-06-26T11:39:22.775Z,3372.00
2019-06-26T11:40:22.753Z,3192.00
2019-06-26T11:41:22.768Z,3104.00
2019-06-26T11:42:22.776Z,3068.00
2019-06-26T11:43:22.788Z,3068.00
2019-06-26T11:44:22.834Z,3092.00
2019-06-26T11:45:22.792Z,3096.00
2019-06-26T11:46:22.799Z,3100.00
2019-06-26T11:47:22.832Z,3116.00
2019-06-26T11:48:22.863Z,3124.00
2019-06-26T11:49:22.822Z,3124.00
2019-06-26T11:50:22.835Z,3136.00
2019-06-26T11:51:22.834Z,3136.00
2019-06-26T11:52:22.851Z,3132.00
2019-06-26T11:53:22.857Z,3076.00
2019-06-26T11:54:22.866Z,3044.00
2019-06-26T11:55:22.870Z,3064.00
2019-06-26T11:56:22.887Z,3100.00
2019-06-26T11:57:22.883Z,3136.00
2019-06-26T11:58:22.893Z,3172.00
2019-06-26T11:59:22.901Z,3204.00
2019-06-26T12:00:22.905Z,3232.00
2019-06-26T12:01:22.933Z,3196.00
2019-06-26T12:02:22.924Z,3140.00
2019-06-26T12:03:22.942Z,3092.00
2019-06-26T12:04:22.934Z,3072.00
2019-06-26T12:05:22.955Z,3052.00
2019-06-26T12:06:22.953Z,3032.00
2019-06-26T12:07:22.963Z,3036.00
2019-06-26T12:08:22.966Z,3048.00
2019-06-26T12:09:22.978Z,3092.00
2019-06-26T12:10:22.983Z,3096.00
2019-06-26T12:11:22.987Z,3056.00
2019-06-26T12:12:22.996Z,2952.00
2019-06-26T12:13:23.009Z,2900.00
2019-06-26T12:14:23.015Z,2864.00
2019-06-26T12:15:23.022Z,2820.00
2019-06-26T12:16:23.032Z,2784.00
2019-06-26T12:17:23.062Z,2772.00
2019-06-26T12:18:23.042Z,2756.00
2019-06-26T12:19:23.639Z,2744.00
2019-06-26T12:20:23.066Z,2696.00
2019-06-26T12:21:23.066Z,2668.00
2019-06-26T12:22:23.070Z,2644.00
2019-06-26T12:23:23.081Z,2616.00
2019-06-26T12:24:26.292Z,2620.00
2019-06-26T12:25:23.095Z,2640.00